createdAt,value
2023-03-22T00:00:22.586Z,0.87
2023-03-22T00:04:22.789Z,0.86
2023-03-22T00:08:22.773Z,0.83
2023-03-22T00:12:22.703Z,0.84
2023-03-22T00:16:22.755Z,0.83
2023-03-22T00:20:22.680Z,0.84
2023-03-22T00:24:22.635Z,0.83
2023-03-22T00:28:22.589Z,0.84
2023-03-22T00:32:22.554Z,0.81
2023-03-22T00:36:22.513Z,0.81
2023-03-22T00:40:22.483Z,0.81
2023-03-22T00:44:22.449Z,0.81
2023-03-22T00:48:22.632Z,0.81
2023-03-22T00:52:22.554Z,0.80
2023-03-22T00:56:22.521Z,0.78
2023-03-22T01:00:22.493Z,0.80
2023-03-22T01:04:22.457Z,0.77
2023-03-22T01:08:22.415Z,0.78
2023-03-22T01:12:22.405Z,0.79
2023-03-22T01:16:22.461Z,0.77
2023-03-22T01:20:22.322Z,0.75
2023-03-22T01:24:22.278Z,0.75
2023-03-22T01:28:22.489Z,0.76
2023-03-22T01:32:22.364Z,0.75
2023-03-22T01:36:22.295Z,0.74
2023-03-22T01:40:22.300Z,0.74
2023-03-22T01:44:22.243Z,0.74
2023-03-22T01:48:22.299Z,0.73
2023-03-22T01:52:22.157Z,0.72
2023-03-22T01:56:22.134Z,0.73
2023-03-22T02:00:22.101Z,0.72
2023-03-22T02:04:22.084Z,0.71
2023-03-22T02:08:22.246Z,0.71
2023-03-22T02:12:22.190Z,0.72
2023-03-22T02:16:22.169Z,0.69
2023-03-22T02:20:22.137Z,0.69
2023-03-22T02:24:22.094Z,0.72
2023-03-22T02:28:22.076Z,0.69
2023-03-22T02:32:22.044Z,0.69
2023-03-22T02:36:21.986Z,0.68
2023-03-22T02:40:22.009Z,0.67
2023-03-22T02:44:21.912Z,0.69
2023-03-22T02:48:21.875Z,0.68
2023-03-22T02:52:22.040Z,0.67
2023-03-22T02:56:22.168Z,0.66
2023-03-22T03:00:22.433Z,0.67
2023-03-22T03:04:22.645Z,0.67
2023-03-22T03:08:22.684Z,0.66
2023-03-22T03:12:22.850Z,0.65
2023-03-22T03:16:23.032Z,0.65
2023-03-22T03:20:23.149Z,0.66
2023-03-22T03:24:23.342Z,0.65
2023-03-22T03:28:23.567Z,0.65
2023-03-22T03:32:23.786Z,0.64
2023-03-22T03:36:23.998Z,0.65
2023-03-22T03:40:24.200Z,0.64
2023-03-22T03:44:24.350Z,0.64
2023-03-22T03:48:24.548Z,0.63
2023-03-22T03:52:24.667Z,0.65
2023-03-22T03:56:24.756Z,0.61
2023-03-22T04:00:24.851Z,0.63
2023-03-22T04:04:25.089Z,0.62
2023-03-22T04:08:25.136Z,0.62
2023-03-22T04:12:25.310Z,0.63
2023-03-22T04:16:25.494Z,0.61
2023-03-22T04:20:25.625Z,0.61
2023-03-22T04:24:25.842Z,0.61
2023-03-22T04:28:26.003Z,0.61
2023-03-22T04:32:26.162Z,0.60
2023-03-22T04:36:26.290Z,0.61
2023-03-22T04:40:26.357Z,0.60
2023-03-22T04:44:26.564Z,0.60
2023-03-22T04:48:26.537Z,0.59
2023-03-22T04:52:26.629Z,0.58
2023-03-22T04:56:26.717Z,0.59
2023-03-22T05:00:26.918Z,0.59
2023-03-22T05:04:26.851Z,0.59
2023-03-22T05:08:26.910Z,0.59
2023-03-22T05:12:26.973Z,0.57
2023-03-22T05:16:27.094Z,0.58
2023-03-22T05:20:27.688Z,0.58
2023-03-22T05:24:27.008Z,0.58
2023-03-22T05:28:26.941Z,0.57
2023-03-22T05:32:26.990Z,0.56
2023-03-22T05:36:26.968Z,0.57
2023-03-22T05:40:27.008Z,0.57
2023-03-22T05:44:26.984Z,0.55
2023-03-22T05:48:26.978Z,0.57
2023-03-22T05:52:26.991Z,0.55
2023-03-22T05:56:26.973Z,0.55
2023-03-22T06:00:26.964Z,0.55
2023-03-22T06:04:27.073Z,0.55
2023-03-22T06:08:27.088Z,0.55
2023-03-22T06:12:29.597Z,0.55
2023-03-22T06:16:27.203Z,0.55
2023-03-22T06:20:27.136Z,0.56
2023-03-22T06:24:27.106Z,0.54
2023-03-22T06:28:27.058Z,0.53
2023-03-22T06:32:27.048Z,0.53
2023-03-22T06:36:26.969Z,0.53
2023-03-22T06:40:27.240Z,0.53
2023-03-22T06:44:27.238Z,0.55
2023-03-22T06:48:27.359Z,0.60
2023-03-22T06:52:27.248Z,0.70
2023-03-22T06:56:26.798Z,0.79
2023-03-22T07:00:27.219Z,0.98
2023-03-22T07:04:26.791Z,1.13
2023-03-22T07:08:26.746Z,1.29
2023-03-22T07:12:26.670Z,1.48
2023-03-22T07:16:26.816Z,1.60
2023-03-22T07:20:26.605Z,1.75
2023-03-22T07:24:26.757Z,1.86
2023-03-22T07:28:26.854Z,2.07
2023-03-22T07:32:26.794Z,2.23
2023-03-22T07:36:26.646Z,2.39
2023-03-22T07:40:26.619Z,2.52
2023-03-22T07:44:26.753Z,2.59
2023-03-22T07:48:26.572Z,2.62
2023-03-22T07:52:26.781Z,2.57
2023-03-22T07:56:26.510Z,1.53
2023-03-22T08:00:26.455Z,1.07
2023-03-22T08:04:26.416Z,0.90
2023-03-22T08:08:26.390Z,0.74
2023-03-22T08:12:26.380Z,0.73
2023-03-22T08:16:26.908Z,0.61
2023-03-22T08:20:26.321Z,0.50
2023-03-22T08:24:26.256Z,0.51
2023-03-22T08:28:26.205Z,0.50
2023-03-22T08:32:26.269Z,0.50
2023-03-22T08:36:26.768Z,0.62
2023-03-22T08:40:26.186Z,0.77
2023-03-22T08:44:26.278Z,0.97
2023-03-22T08:48:26.808Z,1.15
2023-03-22T08:52:26.772Z,1.22
2023-03-22T08:56:26.775Z,1.31
2023-03-22T09:00:33.983Z,1.34
2023-03-22T09:04:27.973Z,1.35
2023-03-22T09:08:26.976Z,1.34
2023-03-22T09:12:27.265Z,1.35
2023-03-22T09:16:26.959Z,1.33
2023-03-22T09:20:26.880Z,1.35
2023-03-22T09:24:28.193Z,1.29
2023-03-22T09:28:26.898Z,1.27
2023-03-22T09:32:26.751Z,1.29
2023-03-22T09:36:26.703Z,1.31
2023-03-22T09:40:26.854Z,1.26
2023-03-22T09:44:26.800Z,1.33
2023-03-22T09:48:26.829Z,1.57
2023-03-22T09:52:26.837Z,1.96
2023-03-22T09:56:26.532Z,2.31
2023-03-22T10:00:26.626Z,2.13
2023-03-22T10:04:26.630Z,2.11
2023-03-22T10:08:26.797Z,2.40
2023-03-22T10:12:26.374Z,2.46
2023-03-22T10:16:26.443Z,2.69
2023-03-22T10:20:26.808Z,2.75
2023-03-22T10:24:26.320Z,2.92
2023-03-22T10:28:26.376Z,2.94
2023-03-22T10:32:26.511Z,2.99
2023-03-22T10:36:26.795Z,3.08
2023-03-22T10:40:27.324Z,3.06
2023-03-22T10:44:27.353Z,2.97
2023-03-22T10:48:27.238Z,2.61
2023-03-22T10:52:27.266Z,2.27
2023-03-22T10:56:27.856Z,2.29
2023-03-22T11:00:27.495Z,1.96
2023-03-22T11:04:27.547Z,2.01
2023-03-22T11:08:27.652Z,1.54
2023-03-22T11:12:27.841Z,1.43
2023-03-22T11:16:27.768Z,1.49
2023-03-22T11:20:29.824Z,1.74
2023-03-22T11:24:27.713Z,1.63
2023-03-22T11:28:27.681Z,1.68
2023-03-22T11:32:27.709Z,1.92
2023-03-22T11:36:27.577Z,2.19
2023-03-22T11:40:27.825Z,2.18
2023-03-22T11:44:27.850Z,1.42
2023-03-22T11:48:27.685Z,1.11
2023-03-22T11:52:27.444Z,1.45
2023-03-22T11:56:27.414Z,1.74
2023-03-22T12:00:27.393Z,2.02
2023-03-22T12:04:27.406Z,2.35
2023-03-22T12:08:27.401Z,2.62
2023-03-22T12:12:27.641Z,2.97
2023-03-22T12:16:27.891Z,3.32
2023-03-22T12:20:27.940Z,3.94
2023-03-22T12:24:28.055Z,4.42
2023-03-22T12:28:28.401Z,5.33
2023-03-22T12:32:28.268Z,4.96
2023-03-22T12:36:28.871Z,4.97
2023-03-22T12:40:28.841Z,4.71
2023-03-22T12:44:28.773Z,4.50
2023-03-22T12:48:28.872Z,4.14
2023-03-22T12:52:34.721Z,3.66
2023-03-22T12:56:29.693Z,3.52
2023-03-22T13:00:28.755Z,3.32
2023-03-22T13:04:28.840Z,3.22
2023-03-22T13:08:30.273Z,3.43
2023-03-22T13:12:29.016Z,3.71
2023-03-22T13:16:29.016Z,3.67
2023-03-22T13:20:28.911Z,3.56
2023-03-22T13:24:30.252Z,3.32
2023-03-22T13:28:29.121Z,3.15
2023-03-22T13:32:29.265Z,2.93
2023-03-22T13:36:29.503Z,2.68
2023-03-22T13:40:29.725Z,2.43
2023-03-22T13:44:29.873Z,2.29
2023-03-22T13:48:30.242Z,1.97
2023-03-22T13:52:30.195Z,1.66
2023-03-22T13:56:30.309Z,1.55
2023-03-22T14:00:30.434Z,1.48
2023-03-22T14:04:30.543Z,1.43
2023-03-22T14:08:30.584Z,1.36
2023-03-22T14:12:30.604Z,1.23
2023-03-22T14:16:30.669Z,1.20
2023-03-22T14:20:30.600Z,1.15
2023-03-22T14:49:30.803Z,0.50
2023-03-22T14:53:30.782Z,0.50
2023-03-22T14:57:36.718Z,0.50
2023-03-22T15:01:31.748Z,0.49
2023-03-22T15:05:30.725Z,0.51
2023-03-22T15:09:30.660Z,0.51
2023-03-22T15:13:30.641Z,0.51
2023-03-22T15:17:30.573Z,0.51
2023-03-22T15:21:30.588Z,0.51
2023-03-22T15:25:30.543Z,0.50
2023-03-22T15:29:30.491Z,0.50
2023-03-22T15:33:30.572Z,0.52
2023-03-22T15:37:30.539Z,0.51
2023-03-22T15:41:30.498Z,0.50
2023-03-22T15:45:30.450Z,0.50
2023-03-22T15:49:30.434Z,0.65
2023-03-22T15:53:30.403Z,0.64
2023-03-22T15:57:30.334Z,0.59
2023-03-22T16:01:30.423Z,0.51
2023-03-22T16:05:30.284Z,0.52
2023-03-22T16:09:30.262Z,0.52
2023-03-22T16:13:30.206Z,0.51
2023-03-22T16:17:30.186Z,0.50
2023-03-22T16:21:30.164Z,0.54
2023-03-22T16:25:30.120Z,0.57
2023-03-22T16:29:30.090Z,0.70
2023-03-22T16:33:30.071Z,0.62
2023-03-22T16:37:30.036Z,0.56
2023-03-22T16:41:29.980Z,0.51
2023-03-22T16:45:29.942Z,0.52
2023-03-22T16:49:29.978Z,0.52
2023-03-22T16:53:32.514Z,0.52
2023-03-22T16:57:31.090Z,0.55
2023-03-22T17:01:30.146Z,0.57
2023-03-22T17:05:30.099Z,0.57
2023-03-22T17:09:30.234Z,0.55
2023-03-22T17:13:30.516Z,0.50
2023-03-22T17:17:30.438Z,0.49
2023-03-22T17:21:30.388Z,0.53
2023-03-22T17:25:30.401Z,0.50
2023-03-22T17:29:30.340Z,0.52
2023-03-22T17:33:31.555Z,0.50
2023-03-22T17:37:30.396Z,0.51
2023-03-22T17:41:30.273Z,0.50
2023-03-22T17:45:31.415Z,0.55
2023-03-22T17:49:31.186Z,0.57
2023-03-22T17:54:24.253Z,0.55
2023-03-22T17:57:56.177Z,0.58
2023-03-22T18:01:31.122Z,0.55
2023-03-22T18:05:34.169Z,0.56
2023-03-22T18:09:30.009Z,0.53
2023-03-22T18:13:30.007Z,0.56
2023-03-22T18:17:29.946Z,0.57
2023-03-22T18:21:29.898Z,0.57
2023-03-22T18:25:40.044Z,0.55
2023-03-22T18:29:30.869Z,0.52
2023-03-22T18:33:30.623Z,0.58
2023-03-22T18:37:30.135Z,0.54
2023-03-22T18:41:41.180Z,0.58
2023-03-22T18:45:52.751Z,0.67
2023-03-22T18:49:31.142Z,0.70
2023-03-22T18:53:30.120Z,0.86
2023-03-22T18:57:32.461Z,0.88
2023-03-22T19:01:30.327Z,0.91
2023-03-22T19:05:30.090Z,0.95
2023-03-22T19:09:30.135Z,0.96
2023-03-22T19:13:30.043Z,0.98
2023-03-22T19:17:30.059Z,0.97
2023-03-22T19:21:32.590Z,1.03
2023-03-22T19:25:30.050Z,0.90
2023-03-22T19:29:30.022Z,0.79
2023-03-22T19:33:41.909Z,0.75
2023-03-22T19:37:30.989Z,0.71
2023-03-22T19:41:52.428Z,0.76
2023-03-22T19:45:30.876Z,0.62
2023-03-22T19:49:29.846Z,0.66
2023-03-22T19:54:03.693Z,0.64
2023-03-22T19:57:30.791Z,0.64
2023-03-22T20:01:29.767Z,0.70
2023-03-22T20:05:29.860Z,0.65
2023-03-22T20:09:29.747Z,0.62
2023-03-22T20:13:29.908Z,0.60
2023-03-22T20:17:30.082Z,0.67
2023-03-22T20:21:30.172Z,0.60
2023-03-22T20:25:30.264Z,0.59
2023-03-22T20:29:30.422Z,0.55
2023-03-22T20:33:30.634Z,0.55
2023-03-22T20:37:30.857Z,0.55
2023-03-22T20:41:31.060Z,0.55
2023-03-22T20:45:31.289Z,0.57
2023-03-22T20:49:31.252Z,0.60
2023-03-22T20:53:31.244Z,0.52
2023-03-22T20:57:31.173Z,0.53
2023-03-22T21:01:31.154Z,0.56
2023-03-22T21:05:31.120Z,0.53
2023-03-22T21:09:31.091Z,0.68
2023-03-22T21:13:31.069Z,0.85
2023-03-22T21:17:31.064Z,0.89
2023-03-22T21:21:32.135Z,0.92
2023-03-22T21:25:30.950Z,0.94
2023-03-22T21:29:30.903Z,0.99
2023-03-22T21:33:30.928Z,0.87
2023-03-22T21:37:30.883Z,0.99
2023-03-22T21:41:30.814Z,1.11
2023-03-22T21:45:30.797Z,1.16
2023-03-22T21:49:30.740Z,1.30
2023-03-22T21:53:30.699Z,1.30
2023-03-22T21:57:30.694Z,1.30
2023-03-22T22:01:30.885Z,1.32
2023-03-22T22:05:30.766Z,1.27
2023-03-22T22:09:30.797Z,1.19
2023-03-22T22:13:30.727Z,1.06
2023-03-22T22:17:30.700Z,1.05
2023-03-22T22:21:30.677Z,1.04
2023-03-22T22:25:30.593Z,1.06
2023-03-22T22:29:30.573Z,1.18
2023-03-22T22:33:30.543Z,1.18
2023-03-22T22:37:32.189Z,0.90
2023-03-22T22:41:30.480Z,1.05
2023-03-22T22:45:30.719Z,1.00
2023-03-22T22:49:30.410Z,0.92
2023-03-22T22:53:30.344Z,0.84
2023-03-22T22:57:30.353Z,0.82
2023-03-22T23:01:30.333Z,0.85
2023-03-22T23:05:30.254Z,0.85
2023-03-22T23:09:30.203Z,0.92
2023-03-22T23:13:30.162Z,0.95
2023-03-22T23:17:30.171Z,0.95
2023-03-22T23:21:30.112Z,0.96
2023-03-22T23:25:30.098Z,0.98
2023-03-22T23:29:30.061Z,1.01
2023-03-22T23:33:30.034Z,1.00
2023-03-22T23:37:30.068Z,0.93
2023-03-22T23:41:30.097Z,0.73
2023-03-22T23:45:30.220Z,0.63
2023-03-22T23:49:30.282Z,0.62
2023-03-22T23:53:30.414Z,0.60
2023-03-22T23:57:30.502Z,0.62
